createdAt,value
2019-02-26T00:01:59.419Z,4.20
2019-02-26T00:04:29.790Z,4.20
2019-02-26T00:07:00.381Z,4.30
2019-02-26T00:09:30.614Z,4.30
2019-02-26T00:12:00.947Z,4.40
2019-02-26T00:14:30.485Z,4.40
2019-02-26T00:16:59.844Z,4.40
2019-02-26T00:19:29.263Z,4.50
2019-02-26T00:21:58.679Z,4.50
2019-02-26T00:24:30.554Z,4.50
2019-02-26T00:27:00.985Z,4.60
2019-02-26T00:29:32.039Z,4.70
2019-02-26T00:32:01.311Z,4.80
2019-02-26T00:34:32.268Z,4.80
2019-02-26T00:37:03.946Z,4.80
2019-02-26T00:39:32.965Z,4.90
2019-02-26T00:42:03.212Z,4.80
2019-02-26T00:44:35.245Z,4.90
2019-02-26T00:47:06.570Z,4.80
2019-02-26T00:49:35.558Z,4.80
2019-02-26T00:52:06.332Z,4.90
2019-02-26T00:54:36.608Z,4.90
2019-02-26T00:57:08.633Z,4.90
2019-02-26T00:59:38.881Z,5.00
2019-02-26T01:02:08.197Z,5.00
2019-02-26T01:04:39.049Z,5.00
2019-02-26T01:07:08.675Z,5.00
2019-02-26T01:09:38.104Z,4.90
2019-02-26T01:12:09.227Z,4.90
2019-02-26T01:14:39.164Z,5.00
2019-02-26T01:17:10.327Z,5.00
2019-02-26T01:19:42.979Z,4.90
2019-02-26T01:22:12.039Z,4.90
2019-02-26T01:24:41.468Z,4.90
2019-02-26T01:27:10.919Z,5.00
2019-02-26T01:29:40.343Z,5.00
2019-02-26T01:32:13.163Z,5.00
2019-02-26T01:34:42.589Z,5.10
2019-02-26T01:37:12.073Z,5.10
2019-02-26T01:39:42.934Z,5.00
2019-02-26T01:42:13.395Z,5.00
2019-02-26T01:44:44.500Z,5.00
2019-02-26T01:47:13.946Z,5.00
2019-02-26T01:49:44.171Z,5.00
2019-02-26T01:52:15.177Z,5.00
2019-02-26T01:54:45.687Z,5.10
2019-02-26T01:57:17.238Z,5.00
2019-02-26T01:59:47.450Z,5.10
2019-02-26T02:02:19.825Z,5.10
2019-02-26T02:04:48.371Z,5.10
2019-02-26T02:07:18.932Z,5.10
2019-02-26T02:09:50.906Z,5.00
2019-02-26T02:12:19.918Z,5.10
2019-02-26T02:14:49.333Z,5.00
2019-02-26T02:17:18.757Z,5.00
2019-02-26T02:19:48.179Z,5.00
2019-02-26T02:22:19.140Z,4.90
2019-02-26T02:27:19.565Z,4.90
2019-02-26T02:29:50.650Z,4.90
2019-02-26T02:32:20.928Z,4.90
2019-02-26T02:34:50.561Z,4.80
2019-02-26T02:37:24.030Z,4.80
2019-02-26T02:39:51.008Z,4.80
2019-02-26T02:42:22.001Z,4.70
2019-02-26T02:44:52.775Z,4.80
2019-02-26T02:47:25.050Z,4.70
2019-02-26T02:49:53.349Z,4.80
2019-02-26T02:52:24.258Z,4.80
2019-02-26T02:54:53.816Z,4.80
2019-02-26T02:57:24.211Z,4.70
2019-02-26T02:59:55.021Z,4.70
2019-02-26T03:02:25.353Z,4.60
2019-02-26T03:04:54.767Z,4.60
2019-02-26T03:07:26.976Z,4.60
2019-02-26T03:09:55.675Z,4.60
2019-02-26T03:12:25.099Z,4.70
2019-02-26T03:14:56.330Z,4.60
2019-02-26T03:17:25.601Z,4.60
2019-02-26T03:19:55.952Z,4.60
2019-02-26T03:22:26.080Z,4.60
2019-02-26T03:24:57.506Z,4.60
2019-02-26T03:27:28.371Z,4.60
2019-02-26T03:29:59.099Z,4.50
2019-02-26T03:32:28.716Z,4.60
2019-02-26T03:35:02.021Z,4.60
2019-02-26T03:37:31.224Z,4.50
2019-02-26T03:40:02.869Z,4.50
2019-02-26T03:42:33.238Z,4.50
2019-02-26T03:45:02.967Z,4.50
2019-02-26T03:47:33.437Z,4.40
2019-02-26T03:50:02.843Z,4.40
2019-02-26T03:52:32.308Z,4.40
2019-02-26T03:55:03.543Z,4.40
2019-02-26T03:57:32.945Z,4.40
2019-02-26T04:00:05.744Z,4.40
2019-02-26T04:02:33.427Z,4.40
2019-02-26T04:05:05.502Z,4.40
2019-02-26T04:07:35.851Z,4.30
2019-02-26T04:10:05.183Z,4.40
2019-02-26T04:12:39.300Z,4.30
2019-02-26T04:15:06.590Z,4.30
2019-02-26T04:17:36.819Z,4.30
2019-02-26T04:20:08.351Z,4.30
2019-02-26T04:22:40.168Z,4.30
2019-02-26T04:25:30.612Z,4.30
2019-02-26T04:28:10.890Z,4.30
2019-02-26T04:31:11.120Z,4.30
2019-02-26T04:34:08.473Z,4.20
2019-02-26T04:37:32.714Z,4.30
2019-02-26T04:40:14.117Z,4.30
2019-02-26T04:43:19.278Z,4.30
2019-02-26T04:46:36.887Z,4.30
2019-02-26T04:49:06.540Z,4.30
2019-02-26T04:51:36.338Z,4.20
2019-02-26T04:54:06.890Z,4.30
2019-02-26T04:56:39.578Z,4.30
2019-02-26T04:59:09.782Z,4.30
2019-02-26T05:01:38.530Z,4.30
2019-02-26T05:04:07.851Z,4.30
2019-02-26T05:06:37.174Z,4.30
2019-02-26T05:09:08.155Z,4.20
2019-02-26T05:11:40.647Z,4.20
2019-02-26T05:14:09.863Z,4.30
2019-02-26T05:16:40.293Z,4.30
2019-02-26T05:19:10.675Z,4.30
2019-02-26T05:21:40.883Z,4.30
2019-02-26T05:24:12.430Z,4.30
2019-02-26T05:26:41.301Z,4.30
2019-02-26T05:29:13.025Z,4.30
2019-02-26T05:31:43.220Z,4.30
2019-02-26T05:34:15.163Z,4.30
2019-02-26T05:36:46.093Z,4.30
2019-02-26T05:39:18.067Z,4.40
2019-02-26T05:41:45.759Z,4.40
2019-02-26T05:44:15.126Z,4.30
2019-02-26T05:46:44.529Z,4.40
2019-02-26T05:49:16.429Z,4.40
2019-02-26T05:51:45.013Z,4.30
2019-02-26T05:54:17.728Z,4.40
2019-02-26T05:56:46.884Z,4.30
2019-02-26T05:59:18.053Z,4.30
2019-02-26T06:01:51.928Z,4.30
2019-02-26T06:04:20.638Z,4.30
2019-02-26T06:06:51.091Z,4.30
2019-02-26T06:09:23.536Z,4.30
2019-02-26T06:11:51.787Z,4.30
2019-02-26T06:14:21.102Z,4.30
2019-02-26T06:16:53.042Z,4.30
2019-02-26T06:19:42.344Z,4.30
2019-02-26T06:22:14.523Z,4.30
2019-02-26T06:24:42.395Z,4.30
2019-02-26T06:27:15.395Z,4.30
2019-02-26T06:29:42.752Z,4.30
2019-02-26T06:32:13.954Z,4.40
2019-02-26T06:34:43.272Z,4.40
2019-02-26T06:37:23.498Z,4.40
2019-02-26T06:39:55.107Z,4.40
2019-02-26T06:42:24.142Z,4.40
2019-02-26T06:44:53.458Z,4.40
2019-02-26T06:47:25.450Z,4.40
2019-02-26T06:49:53.803Z,4.40
2019-02-26T06:52:23.110Z,4.50
2019-02-26T06:54:57.266Z,4.50
2019-02-26T06:57:23.463Z,4.50
2019-02-26T06:59:53.663Z,4.60
2019-02-26T07:02:28.265Z,4.60
2019-02-26T07:04:54.868Z,4.60
2019-02-26T07:07:24.271Z,4.60
2019-02-26T07:09:57.445Z,4.70
2019-02-26T07:12:26.394Z,4.70
2019-02-26T07:14:58.003Z,4.70
2019-02-26T07:17:31.898Z,4.70
2019-02-26T07:20:00.140Z,4.80
2019-02-26T07:22:29.033Z,4.80
2019-02-26T07:24:58.418Z,4.70
2019-02-26T07:27:28.826Z,4.80
2019-02-26T07:29:58.783Z,4.80
2019-02-26T07:32:28.112Z,4.80
2019-02-26T07:34:58.140Z,4.80
2019-02-26T07:37:28.619Z,4.80
2019-02-26T07:39:58.645Z,4.80
2019-02-26T07:42:28.025Z,4.90
2019-02-26T07:44:57.350Z,4.90
2019-02-26T07:47:28.872Z,5.00
2019-02-26T07:50:00.844Z,5.00
2019-02-26T07:52:30.664Z,5.10
2019-02-26T07:54:59.782Z,5.10
2019-02-26T07:57:29.162Z,5.20
2019-02-26T07:59:58.482Z,5.20
2019-02-26T08:02:28.402Z,5.40
2019-02-26T08:04:58.838Z,5.50
2019-02-26T08:07:28.549Z,5.60
2019-02-26T08:09:59.186Z,5.70
2019-02-26T08:12:30.448Z,5.90
2019-02-26T08:14:59.576Z,6.00
2019-02-26T08:17:28.892Z,6.10
2019-02-26T08:19:58.217Z,6.20
2019-02-26T08:22:29.334Z,6.30
2019-02-26T08:24:58.582Z,6.40
2019-02-26T08:27:28.637Z,6.40
2019-02-26T08:30:00.853Z,6.50
2019-02-26T08:32:30.525Z,6.70
2019-02-26T08:35:00.128Z,6.70
2019-02-26T08:37:29.595Z,6.80
2019-02-26T08:39:58.910Z,6.90
2019-02-26T08:42:28.245Z,7.10
2019-02-26T08:44:58.265Z,7.10
2019-02-26T08:47:27.659Z,7.40
2019-02-26T08:49:58.810Z,7.40
2019-02-26T08:52:29.349Z,7.40
2019-02-26T08:54:58.834Z,7.50
2019-02-26T08:57:28.150Z,7.60
2019-02-26T08:59:57.475Z,7.70
2019-02-26T09:02:26.790Z,7.80
2019-02-26T09:04:56.121Z,7.90
2019-02-26T09:07:26.304Z,7.90
2019-02-26T09:09:57.584Z,8.00
2019-02-26T09:12:27.311Z,8.10
2019-02-26T09:14:56.779Z,8.30
2019-02-26T09:17:27.527Z,8.40
2019-02-26T09:20:06.991Z,8.50
2019-02-26T09:22:28.474Z,8.80
2019-02-26T09:25:01.458Z,9.00
2019-02-26T09:27:29.575Z,9.10
2019-02-26T09:29:59.990Z,9.20
2019-02-26T09:32:29.314Z,9.20
2019-02-26T09:34:59.151Z,9.30
2019-02-26T09:37:29.694Z,9.40
2019-02-26T09:39:59.754Z,9.50
2019-02-26T09:42:30.556Z,9.70
2019-02-26T09:45:01.100Z,9.80
2019-02-26T09:47:32.853Z,9.60
2019-02-26T09:50:01.455Z,9.80
2019-02-26T09:52:32.647Z,9.90
2019-02-26T09:55:01.847Z,9.90
2019-02-26T09:57:31.259Z,9.80
2019-02-26T10:00:02.923Z,10.00
2019-02-26T10:02:31.647Z,10.10
2019-02-26T10:05:01.002Z,10.20
2019-02-26T10:07:31.251Z,10.40
2019-02-26T10:10:03.591Z,10.50
2019-02-26T10:12:34.608Z,10.60
2019-02-26T10:15:05.290Z,10.60
2019-02-26T10:17:35.657Z,10.50
2019-02-26T10:20:09.444Z,10.80
2019-02-26T10:22:40.451Z,10.80
2019-02-26T10:25:10.215Z,11.00
2019-02-26T10:27:41.380Z,10.90
2019-02-26T10:30:16.072Z,10.90
2019-02-26T10:32:46.823Z,11.20
2019-02-26T10:35:19.466Z,11.20
2019-02-26T10:37:50.977Z,11.40
2019-02-26T10:40:20.468Z,11.40
2019-02-26T10:42:49.796Z,11.20
2019-02-26T10:45:21.237Z,11.40
2019-02-26T10:47:51.254Z,11.50
2019-02-26T10:50:22.842Z,11.70
2019-02-26T10:52:52.869Z,11.60
2019-02-26T10:55:28.140Z,11.60
2019-02-26T10:57:55.354Z,11.60
2019-02-26T11:00:27.939Z,11.50
2019-02-26T11:02:56.581Z,11.70
2019-02-26T11:05:26.595Z,11.80
2019-02-26T11:07:59.740Z,11.60
2019-02-26T11:10:27.243Z,11.80
2019-02-26T11:12:59.384Z,12.10
2019-02-26T11:15:30.166Z,12.20
2019-02-26T11:17:58.704Z,12.30
2019-02-26T11:20:30.777Z,12.30
2019-02-26T11:22:59.083Z,12.20
2019-02-26T11:25:28.473Z,12.40
2019-02-26T11:27:57.795Z,12.50
2019-02-26T11:30:29.459Z,12.80
2019-02-26T11:33:02.213Z,12.80
2019-02-26T11:35:29.247Z,12.70
2019-02-26T11:37:58.597Z,13.00
2019-02-26T11:40:30.481Z,12.90
2019-02-26T11:43:00.333Z,12.70
2019-02-26T11:45:32.227Z,12.50
2019-02-26T11:48:03.668Z,12.60
2019-02-26T11:50:32.286Z,12.90
2019-02-26T11:53:01.679Z,13.10
2019-02-26T11:55:32.398Z,13.20
2019-02-26T11:58:05.660Z,13.60
2019-02-26T12:00:49.676Z,13.50
2019-02-26T12:03:17.930Z,13.50
2019-02-26T12:05:47.261Z,13.60
2019-02-26T12:08:19.364Z,13.90
2019-02-26T12:10:47.636Z,14.00
2019-02-26T12:13:19.717Z,13.70
2019-02-26T12:15:48.378Z,13.80
2019-02-26T12:18:19.823Z,14.10
2019-02-26T12:20:48.904Z,14.30
2019-02-26T12:23:19.846Z,14.30
2019-02-26T12:25:49.854Z,14.50
2019-02-26T12:28:20.349Z,14.40
2019-02-26T12:30:49.754Z,14.80
2019-02-26T12:33:19.116Z,14.70
2019-02-26T12:35:48.513Z,15.00
2019-02-26T12:38:21.319Z,15.20
2019-02-26T12:40:50.740Z,15.40
2019-02-26T12:43:19.934Z,15.60
2019-02-26T12:45:49.266Z,16.00
2019-02-26T12:48:21.977Z,16.40
2019-02-26T12:50:51.958Z,16.20
2019-02-26T12:53:23.477Z,16.30
2019-02-26T12:55:54.024Z,16.40
2019-02-26T12:58:24.405Z,16.30
2019-02-26T13:00:53.895Z,16.50
2019-02-26T13:03:23.232Z,16.30
2019-02-26T13:05:52.557Z,16.50
2019-02-26T13:08:24.222Z,16.80
2019-02-26T13:10:57.767Z,16.70
2019-02-26T13:13:24.140Z,16.30
2019-02-26T13:15:53.459Z,16.80
2019-02-26T13:18:22.784Z,17.00
2019-02-26T13:20:57.241Z,17.20
2019-02-26T13:23:23.237Z,17.10
2019-02-26T13:25:52.630Z,16.80
2019-02-26T13:28:29.151Z,17.10
2019-02-26T13:30:53.046Z,17.30
2019-02-26T13:33:27.531Z,17.00
2019-02-26T13:35:58.794Z,17.10
2019-02-26T13:38:28.958Z,16.50
2019-02-26T13:41:02.227Z,15.80
2019-02-26T13:43:26.551Z,15.30
2019-02-26T13:45:55.983Z,14.50
2019-02-26T13:48:25.306Z,14.40
2019-02-26T13:50:55.102Z,14.90
2019-02-26T13:53:24.427Z,15.30
2019-02-26T13:55:53.739Z,15.60
2019-02-26T13:58:23.063Z,15.50
2019-02-26T14:00:52.464Z,14.80
2019-02-26T14:03:21.895Z,14.30
2019-02-26T14:05:51.237Z,13.40
2019-02-26T14:08:20.628Z,13.30
2019-02-26T14:10:50.020Z,13.20
2019-02-26T14:13:19.440Z,13.50
2019-02-26T14:15:48.933Z,13.60
2019-02-26T14:18:18.335Z,13.10
2019-02-26T14:20:47.652Z,12.80
2019-02-26T14:23:17.055Z,12.40
2019-02-26T14:25:46.566Z,12.10
2019-02-26T14:28:15.974Z,11.90
2019-02-26T14:30:45.302Z,11.90
2019-02-26T14:33:14.626Z,11.90
2019-02-26T14:35:44.131Z,11.60
2019-02-26T14:38:13.462Z,11.40
2019-02-26T14:40:42.858Z,11.40
2019-02-26T14:43:12.283Z,11.30
2019-02-26T14:45:41.685Z,11.40
2019-02-26T14:48:11.282Z,11.70
2019-02-26T14:50:40.689Z,12.20
2019-02-26T14:53:10.074Z,12.60
2019-02-26T14:55:39.418Z,12.70
2019-02-26T14:58:08.744Z,12.30
2019-02-26T15:00:38.166Z,11.90
2019-02-26T15:03:07.485Z,11.60
2019-02-26T15:05:36.881Z,11.30
2019-02-26T15:08:06.278Z,11.00
2019-02-26T15:10:35.611Z,10.70
2019-02-26T15:13:04.934Z,10.40
2019-02-26T15:15:34.259Z,10.20
2019-02-26T15:18:03.578Z,10.00
2019-02-26T15:20:32.980Z,9.80
2019-02-26T15:23:02.575Z,9.70
2019-02-26T15:25:31.986Z,9.70
2019-02-26T15:28:05.158Z,9.40
2019-02-26T15:30:32.424Z,9.20
2019-02-26T15:33:10.526Z,9.10
2019-02-26T15:35:32.854Z,9.00
2019-02-26T15:38:02.175Z,8.80
2019-02-26T15:40:31.570Z,8.80
2019-02-26T15:43:00.891Z,8.70
2019-02-26T15:45:30.243Z,8.50
2019-02-26T15:48:03.803Z,8.50
2019-02-26T15:50:30.690Z,8.30
2019-02-26T15:53:00.018Z,8.30
2019-02-26T15:55:29.385Z,8.30
2019-02-26T15:58:03.024Z,8.10
2019-02-26T16:00:30.124Z,7.80
2019-02-26T16:03:00.143Z,7.70
2019-02-26T16:05:29.582Z,7.60
2019-02-26T16:07:58.907Z,7.40
2019-02-26T16:10:28.331Z,7.30
2019-02-26T16:13:04.330Z,7.20
2019-02-26T16:15:34.761Z,7.10
2019-02-26T16:18:04.194Z,7.10
2019-02-26T16:20:33.591Z,6.90
2019-02-26T16:23:02.911Z,6.70
2019-02-26T16:25:32.309Z,6.70
2019-02-26T16:28:01.703Z,6.70
2019-02-26T16:30:31.035Z,6.60
2019-02-26T16:33:00.363Z,6.50
2019-02-26T16:35:29.697Z,6.50
2019-02-26T16:37:59.078Z,6.60
2019-02-26T16:40:31.360Z,6.50
2019-02-26T16:42:59.447Z,6.60
2019-02-26T16:45:28.858Z,6.20
2019-02-26T16:47:58.185Z,6.10
2019-02-26T16:50:27.610Z,6.20
2019-02-26T16:52:57.931Z,6.10
2019-02-26T16:55:28.065Z,5.80
2019-02-26T16:58:01.492Z,5.70
2019-02-26T17:00:28.431Z,5.80
2019-02-26T17:03:00.821Z,5.60
2019-02-26T17:05:28.831Z,5.80
2019-02-26T17:07:58.530Z,5.80
2019-02-26T17:10:30.229Z,5.70
2019-02-26T17:13:01.931Z,5.70
2019-02-26T17:15:30.309Z,5.50
2019-02-26T17:17:59.705Z,5.60
2019-02-26T17:20:29.031Z,5.70
2019-02-26T17:22:58.593Z,5.70
2019-02-26T17:25:29.049Z,5.70
2019-02-26T17:27:58.485Z,5.50
2019-02-26T17:30:27.883Z,5.60
2019-02-26T17:32:57.253Z,5.70
2019-02-26T17:35:28.995Z,5.70
2019-02-26T17:37:57.698Z,5.80
2019-02-26T17:40:27.066Z,6.00
2019-02-26T17:42:56.402Z,6.10
2019-02-26T17:45:26.178Z,6.10
2019-02-26T17:47:56.901Z,6.10
2019-02-26T17:50:31.988Z,6.10
2019-02-26T17:53:01.392Z,6.20
2019-02-26T17:55:30.790Z,6.20
2019-02-26T17:58:00.758Z,6.10
2019-02-26T18:00:31.889Z,6.10
2019-02-26T18:03:01.211Z,6.20
2019-02-26T18:05:30.539Z,6.30
2019-02-26T18:07:59.870Z,6.10
2019-02-26T18:10:29.468Z,6.00
2019-02-26T18:12:59.523Z,6.00
2019-02-26T18:15:28.855Z,6.00
2019-02-26T18:17:58.422Z,6.20
2019-02-26T18:20:28.754Z,6.10
2019-02-26T18:23:00.205Z,6.20
2019-02-26T18:25:29.956Z,6.20
2019-02-26T18:27:59.569Z,6.10
2019-02-26T18:30:29.396Z,6.10
2019-02-26T18:32:59.229Z,6.00
2019-02-26T18:35:28.830Z,6.20
2019-02-26T18:37:58.241Z,6.20
2019-02-26T18:40:28.346Z,6.30
2019-02-26T18:42:58.603Z,6.20
2019-02-26T18:45:28.954Z,6.30
2019-02-26T18:47:58.565Z,6.30
2019-02-26T18:50:28.747Z,6.40
2019-02-26T18:52:59.104Z,6.40
2019-02-26T18:55:32.337Z,6.50
2019-02-26T18:57:59.854Z,6.50
2019-02-26T19:00:29.254Z,6.40
2019-02-26T19:02:58.977Z,6.40
2019-02-26T19:05:28.306Z,6.40
2019-02-26T19:07:57.639Z,6.40
2019-02-26T19:10:26.969Z,6.50
2019-02-26T19:12:56.294Z,6.50
2019-02-26T19:15:25.951Z,6.50
2019-02-26T19:17:56.933Z,6.30
2019-02-26T19:20:28.094Z,6.30
2019-02-26T19:22:58.883Z,6.40
2019-02-26T19:25:28.582Z,6.30
2019-02-26T19:27:57.910Z,6.40
2019-02-26T19:30:27.268Z,6.40
2019-02-26T19:32:56.607Z,6.50
2019-02-26T19:35:25.986Z,6.50
2019-02-26T19:37:57.145Z,6.50
2019-02-26T19:40:30.401Z,6.50
2019-02-26T19:42:59.928Z,6.50
2019-02-26T19:45:29.255Z,6.50
2019-02-26T19:47:58.662Z,6.50
2019-02-26T19:50:28.049Z,6.50
2019-02-26T19:53:02.172Z,6.50
2019-02-26T19:55:31.211Z,6.40
2019-02-26T19:58:02.887Z,6.50
2019-02-26T20:00:31.723Z,6.40
2019-02-26T20:03:04.843Z,6.50
2019-02-26T20:05:32.383Z,6.50
2019-02-26T20:08:04.842Z,6.60
2019-02-26T20:10:32.859Z,6.60
2019-02-26T20:13:03.961Z,6.60
2019-02-26T20:15:33.267Z,6.60
2019-02-26T20:18:02.908Z,6.60
2019-02-26T20:20:40.531Z,6.60
2019-02-26T20:23:05.941Z,6.60
2019-02-26T20:25:34.783Z,6.50
2019-02-26T20:28:05.599Z,6.50
2019-02-26T20:30:35.190Z,6.50
2019-02-26T20:33:04.838Z,6.50
2019-02-26T20:35:34.643Z,6.50
2019-02-26T20:38:03.979Z,6.50
2019-02-26T20:40:33.303Z,6.50
2019-02-26T20:43:05.194Z,6.40
2019-02-26T20:45:33.703Z,6.40
2019-02-26T20:48:04.242Z,6.40
2019-02-26T20:50:34.102Z,6.40
2019-02-26T20:53:05.634Z,6.50
2019-02-26T20:55:34.775Z,6.40
2019-02-26T20:58:04.101Z,6.50
2019-02-26T21:00:33.422Z,6.50
2019-02-26T21:03:02.759Z,6.50
2019-02-26T21:05:32.222Z,6.50
2019-02-26T21:08:01.559Z,6.50
2019-02-26T21:10:30.886Z,6.50
2019-02-26T21:13:01.837Z,6.50
2019-02-26T21:15:31.358Z,6.40
2019-02-26T21:18:00.862Z,6.40
2019-02-26T21:20:30.211Z,6.50
2019-02-26T21:22:59.559Z,6.50
2019-02-26T21:25:28.899Z,6.50
2019-02-26T21:28:00.798Z,6.50
2019-02-26T21:30:29.811Z,6.50
2019-02-26T21:32:59.156Z,6.60
2019-02-26T21:35:28.497Z,6.60
2019-02-26T21:37:58.398Z,6.60
2019-02-26T21:40:27.730Z,6.70
2019-02-26T21:42:57.062Z,6.70
2019-02-26T21:45:26.655Z,6.70
2019-02-26T21:47:55.980Z,6.80
2019-02-26T21:50:25.516Z,6.80
2019-02-26T21:53:01.962Z,6.80
2019-02-26T21:55:26.174Z,6.80
2019-02-26T21:57:55.819Z,6.80
2019-02-26T22:00:25.158Z,6.80
2019-02-26T22:02:54.508Z,6.80
2019-02-26T22:05:23.838Z,6.70
2019-02-26T22:07:53.174Z,6.70
2019-02-26T22:10:22.526Z,6.80
2019-02-26T22:12:51.856Z,6.70
2019-02-26T22:15:21.547Z,6.70
2019-02-26T22:17:50.883Z,6.60
2019-02-26T22:20:35.434Z,6.60
2019-02-26T22:22:51.407Z,6.60
2019-02-26T22:25:21.004Z,6.50
2019-02-26T22:27:50.561Z,6.50
2019-02-26T22:30:22.097Z,6.60
2019-02-26T22:32:51.432Z,6.50
2019-02-26T22:35:20.771Z,6.50
2019-02-26T22:37:50.103Z,6.50
2019-02-26T22:40:19.721Z,6.40
2019-02-26T22:42:49.051Z,6.40
2019-02-26T22:45:18.386Z,6.30
2019-02-26T22:47:47.720Z,6.30
2019-02-26T22:50:17.322Z,6.30
2019-02-26T22:52:46.658Z,6.30
2019-02-26T22:55:17.313Z,6.30
2019-02-26T22:57:47.048Z,6.20
2019-02-26T23:00:59.491Z,6.20
2019-02-26T23:03:28.867Z,6.20
2019-02-26T23:05:59.003Z,6.20
2019-02-26T23:08:29.523Z,6.20
2019-02-26T23:10:59.172Z,6.20
2019-02-26T23:13:31.560Z,6.20
2019-02-26T23:16:00.065Z,6.20
2019-02-26T23:18:31.112Z,6.20
2019-02-26T23:21:01.293Z,6.10
2019-02-26T23:23:30.675Z,6.10
2019-02-26T23:26:00.416Z,6.10
2019-02-26T23:28:30.052Z,6.10
2019-02-26T23:30:59.797Z,6.10
2019-02-26T23:33:30.400Z,6.10
2019-02-26T23:35:59.769Z,6.10
2019-02-26T23:38:29.192Z,6.00
2019-02-26T23:41:00.388Z,6.00
2019-02-26T23:43:29.719Z,6.00
2019-02-26T23:45:59.161Z,6.00
2019-02-26T23:48:28.602Z,6.00
2019-02-26T23:50:57.991Z,6.00
2019-02-26T23:53:27.469Z,6.00
2019-02-26T23:55:56.893Z,6.00
2019-02-26T23:58:30.697Z,6.00
